sensor_id;sensor_type;location;lat;lon;timestamp;P1;durP1;ratioP1;P2;durP2;ratioP2
81160;SDS011;70637;48.514;14.500;2023-08-12T00:00:20;6.28;;;3.83;;
81160;SDS011;70637;48.514;14.500;2023-08-12T00:02:46;4.93;;;3.53;;
81160;SDS011;70637;48.514;14.500;2023-08-12T00:05:12;5.32;;;3.33;;
81160;SDS011;70637;48.514;14.500;2023-08-12T00:07:41;6.03;;;3.50;;
81160;SDS011;70637;48.514;14.500;2023-08-12T00:10:08;6.53;;;3.60;;
81160;SDS011;70637;48.514;14.500;2023-08-12T00:12:35;6.05;;;4.03;;
81160;SDS011;70637;48.514;14.500;2023-08-12T00:15:01;4.32;;;3.60;;
81160;SDS011;70637;48.514;14.500;2023-08-12T00:17:31;4.93;;;4.00;;
81160;SDS011;70637;48.514;14.500;2023-08-12T00:19:58;4.30;;;3.60;;
81160;SDS011;70637;48.514;14.500;2023-08-12T00:22:24;5.30;;;3.90;;
81160;SDS011;70637;48.514;14.500;2023-08-12T00:24:50;3.78;;;3.33;;
81160;SDS011;70637;48.514;14.500;2023-08-12T00:27:18;4.78;;;3.83;;
81160;SDS011;70637;48.514;14.500;2023-08-12T00:29:44;5.72;;;4.10;;
81160;SDS011;70637;48.514;14.500;2023-08-12T00:32:09;5.72;;;3.67;;
81160;SDS011;70637;48.514;14.500;2023-08-12T00:34:35;6.97;;;3.85;;
81160;SDS011;70637;48.514;14.500;2023-08-12T00:37:01;8.82;;;3.55;;
81160;SDS011;70637;48.514;14.500;2023-08-12T00:39:27;4.18;;;3.55;;
81160;SDS011;70637;48.514;14.500;2023-08-12T00:41:52;6.55;;;3.78;;
81160;SDS011;70637;48.514;14.500;2023-08-12T00:44:18;4.03;;;3.50;;
81160;SDS011;70637;48.514;14.500;2023-08-12T00:46:44;4.72;;;3.45;;
81160;SDS011;70637;48.514;14.500;2023-08-12T00:49:10;4.70;;;3.65;;
81160;SDS011;70637;48.514;14.500;2023-08-12T00:51:38;5.85;;;3.95;;
81160;SDS011;70637;48.514;14.500;2023-08-12T00:54:06;4.78;;;3.80;;
81160;SDS011;70637;48.514;14.500;2023-08-12T00:56:35;5.32;;;3.42;;
81160;SDS011;70637;48.514;14.500;2023-08-12T00:59:02;4.97;;;3.38;;
81160;SDS011;70637;48.514;14.500;2023-08-12T01:01:32;5.97;;;3.70;;
81160;SDS011;70637;48.514;14.500;2023-08-12T01:03:58;4.43;;;3.42;;
81160;SDS011;70637;48.514;14.500;2023-08-12T01:06:24;4.95;;;3.60;;
81160;SDS011;70637;48.514;14.500;2023-08-12T01:08:50;4.97;;;4.00;;
81160;SDS011;70637;48.514;14.500;2023-08-12T01:11:20;4.88;;;3.47;;
81160;SDS011;70637;48.514;14.500;2023-08-12T01:13:57;5.55;;;3.97;;
81160;SDS011;70637;48.514;14.500;2023-08-12T01:16:28;6.60;;;3.97;;
81160;SDS011;70637;48.514;14.500;2023-08-12T01:18:58;6.30;;;3.90;;
81160;SDS011;70637;48.514;14.500;2023-08-12T01:21:25;5.95;;;3.60;;
81160;SDS011;70637;48.514;14.500;2023-08-12T01:23:54;5.95;;;3.47;;
81160;SDS011;70637;48.514;14.500;2023-08-12T01:26:20;4.50;;;3.53;;
81160;SDS011;70637;48.514;14.500;2023-08-12T01:28:46;5.57;;;4.00;;
81160;SDS011;70637;48.514;14.500;2023-08-12T01:31:15;4.53;;;3.60;;
81160;SDS011;70637;48.514;14.500;2023-08-12T01:33:58;5.15;;;3.83;;
81160;SDS011;70637;48.514;14.500;2023-08-12T01:36:32;6.60;;;3.50;;
81160;SDS011;70637;48.514;14.500;2023-08-12T01:39:01;4.78;;;3.50;;
81160;SDS011;70637;48.514;14.500;2023-08-12T01:41:27;6.43;;;3.65;;
81160;SDS011;70637;48.514;14.500;2023-08-12T01:43:53;5.97;;;3.55;;
81160;SDS011;70637;48.514;14.500;2023-08-12T01:46:19;4.18;;;3.60;;
81160;SDS011;70637;48.514;14.500;2023-08-12T01:48:46;6.30;;;3.38;;
81160;SDS011;70637;48.514;14.500;2023-08-12T01:51:11;4.57;;;3.58;;
81160;SDS011;70637;48.514;14.500;2023-08-12T01:53:37;6.53;;;3.80;;
81160;SDS011;70637;48.514;14.500;2023-08-12T01:56:03;4.57;;;3.70;;
81160;SDS011;70637;48.514;14.500;2023-08-12T01:58:28;4.55;;;3.70;;
81160;SDS011;70637;48.514;14.500;2023-08-12T02:00:54;6.30;;;3.83;;
81160;SDS011;70637;48.514;14.500;2023-08-12T02:03:20;5.43;;;3.88;;
81160;SDS011;70637;48.514;14.500;2023-08-12T02:05:45;6.82;;;3.50;;
81160;SDS011;70637;48.514;14.500;2023-08-12T02:08:11;5.22;;;3.83;;
81160;SDS011;70637;48.514;14.500;2023-08-12T02:10:37;4.93;;;3.45;;
81160;SDS011;70637;48.514;14.500;2023-08-12T02:13:03;5.43;;;3.63;;
81160;SDS011;70637;48.514;14.500;2023-08-12T02:15:29;5.55;;;3.67;;
81160;SDS011;70637;48.514;14.500;2023-08-12T02:17:55;4.57;;;3.58;;
81160;SDS011;70637;48.514;14.500;2023-08-12T02:20:21;4.20;;;3.60;;
81160;SDS011;70637;48.514;14.500;2023-08-12T02:22:47;7.10;;;3.85;;
81160;SDS011;70637;48.514;14.500;2023-08-12T02:25:12;6.90;;;4.43;;
81160;SDS011;70637;48.514;14.500;2023-08-12T02:27:38;5.30;;;4.15;;
81160;SDS011;70637;48.514;14.500;2023-08-12T02:30:04;5.60;;;3.88;;
81160;SDS011;70637;48.514;14.500;2023-08-12T02:32:30;5.57;;;3.70;;
81160;SDS011;70637;48.514;14.500;2023-08-12T02:34:56;6.22;;;3.40;;
81160;SDS011;70637;48.514;14.500;2023-08-12T02:37:21;5.93;;;3.83;;
81160;SDS011;70637;48.514;14.500;2023-08-12T02:39:47;4.88;;;3.33;;
81160;SDS011;70637;48.514;14.500;2023-08-12T02:42:13;5.05;;;3.97;;
81160;SDS011;70637;48.514;14.500;2023-08-12T02:44:38;4.78;;;3.85;;
81160;SDS011;70637;48.514;14.500;2023-08-12T02:47:04;4.53;;;3.67;;
81160;SDS011;70637;48.514;14.500;2023-08-12T02:49:29;5.55;;;3.78;;
81160;SDS011;70637;48.514;14.500;2023-08-12T02:51:55;5.65;;;4.22;;
81160;SDS011;70637;48.514;14.500;2023-08-12T02:54:21;5.22;;;4.15;;
81160;SDS011;70637;48.514;14.500;2023-08-12T02:56:46;5.05;;;3.85;;
81160;SDS011;70637;48.514;14.500;2023-08-12T02:59:12;5.78;;;4.00;;
81160;SDS011;70637;48.514;14.500;2023-08-12T03:01:39;5.85;;;4.18;;
81160;SDS011;70637;48.514;14.500;2023-08-12T03:04:06;5.70;;;3.95;;
81160;SDS011;70637;48.514;14.500;2023-08-12T03:06:32;5.25;;;4.07;;
81160;SDS011;70637;48.514;14.500;2023-08-12T03:08:57;4.72;;;3.80;;
81160;SDS011;70637;48.514;14.500;2023-08-12T03:11:23;7.18;;;3.85;;
81160;SDS011;70637;48.514;14.500;2023-08-12T03:13:49;5.38;;;3.90;;
81160;SDS011;70637;48.514;14.500;2023-08-12T03:16:15;5.18;;;4.22;;
81160;SDS011;70637;48.514;14.500;2023-08-12T03:18:41;5.05;;;3.97;;
81160;SDS011;70637;48.514;14.500;2023-08-12T03:21:07;5.28;;;4.05;;
81160;SDS011;70637;48.514;14.500;2023-08-12T03:23:36;5.90;;;4.35;;
81160;SDS011;70637;48.514;14.500;2023-08-12T03:26:03;5.93;;;4.80;;
81160;SDS011;70637;48.514;14.500;2023-08-12T03:28:29;5.72;;;4.97;;
81160;SDS011;70637;48.514;14.500;2023-08-12T03:30:55;7.28;;;4.28;;
81160;SDS011;70637;48.514;14.500;2023-08-12T03:33:21;5.32;;;4.13;;
81160;SDS011;70637;48.514;14.500;2023-08-12T03:35:49;4.75;;;3.88;;
81160;SDS011;70637;48.514;14.500;2023-08-12T03:38:15;4.30;;;3.70;;
81160;SDS011;70637;48.514;14.500;2023-08-12T03:40:41;6.45;;;3.75;;
81160;SDS011;70637;48.514;14.500;2023-08-12T03:43:07;5.18;;;4.07;;
81160;SDS011;70637;48.514;14.500;2023-08-12T03:45:41;5.43;;;4.00;;
81160;SDS011;70637;48.514;14.500;2023-08-12T03:48:08;7.25;;;4.35;;
81160;SDS011;70637;48.514;14.500;2023-08-12T03:50:35;7.00;;;5.07;;
81160;SDS011;70637;48.514;14.500;2023-08-12T03:53:01;5.85;;;4.60;;
81160;SDS011;70637;48.514;14.500;2023-08-12T03:55:29;6.13;;;4.88;;
81160;SDS011;70637;48.514;14.500;2023-08-12T03:57:59;6.60;;;5.28;;
81160;SDS011;70637;48.514;14.500;2023-08-12T04:00:27;5.72;;;4.13;;
81160;SDS011;70637;48.514;14.500;2023-08-12T04:02:53;5.93;;;4.28;;
81160;SDS011;70637;48.514;14.500;2023-08-12T04:05:19;5.50;;;4.35;;
81160;SDS011;70637;48.514;14.500;2023-08-12T04:07:45;5.35;;;4.13;;
81160;SDS011;70637;48.514;14.500;2023-08-12T04:10:10;9.50;;;4.05;;
81160;SDS011;70637;48.514;14.500;2023-08-12T04:12:36;5.50;;;4.25;;
81160;SDS011;70637;48.514;14.500;2023-08-12T04:15:02;6.78;;;4.55;;
81160;SDS011;70637;48.514;14.500;2023-08-12T04:17:31;6.88;;;4.10;;
81160;SDS011;70637;48.514;14.500;2023-08-12T04:19:57;5.25;;;4.07;;
81160;SDS011;70637;48.514;14.500;2023-08-12T04:22:22;6.00;;;4.30;;
81160;SDS011;70637;48.514;14.500;2023-08-12T04:24:48;5.38;;;4.22;;
81160;SDS011;70637;48.514;14.500;2023-08-12T04:27:14;7.03;;;4.35;;
81160;SDS011;70637;48.514;14.500;2023-08-12T04:29:41;5.07;;;4.07;;
81160;SDS011;70637;48.514;14.500;2023-08-12T04:32:07;8.52;;;4.82;;
81160;SDS011;70637;48.514;14.500;2023-08-12T04:34:33;7.05;;;4.65;;
81160;SDS011;70637;48.514;14.500;2023-08-12T04:36:59;6.25;;;4.20;;
81160;SDS011;70637;48.514;14.500;2023-08-12T04:39:24;7.15;;;3.83;;
81160;SDS011;70637;48.514;14.500;2023-08-12T04:41:50;4.57;;;3.58;;
81160;SDS011;70637;48.514;14.500;2023-08-12T04:44:16;5.75;;;3.75;;
81160;SDS011;70637;48.514;14.500;2023-08-12T04:46:42;5.32;;;4.20;;
81160;SDS011;70637;48.514;14.500;2023-08-12T04:49:08;5.35;;;4.10;;
81160;SDS011;70637;48.514;14.500;2023-08-12T04:51:35;4.78;;;4.25;;
81160;SDS011;70637;48.514;14.500;2023-08-12T04:54:00;8.32;;;3.92;;
81160;SDS011;70637;48.514;14.500;2023-08-12T04:56:27;5.85;;;3.97;;
81160;SDS011;70637;48.514;14.500;2023-08-12T04:58:56;6.03;;;4.00;;
81160;SDS011;70637;48.514;14.500;2023-08-12T05:01:21;8.05;;;4.53;;
81160;SDS011;70637;48.514;14.500;2023-08-12T05:03:47;4.70;;;4.00;;
81160;SDS011;70637;48.514;14.500;2023-08-12T05:06:16;5.13;;;3.92;;
81160;SDS011;70637;48.514;14.500;2023-08-12T05:08:41;6.13;;;4.93;;
81160;SDS011;70637;48.514;14.500;2023-08-12T05:11:07;8.07;;;4.47;;
81160;SDS011;70637;48.514;14.500;2023-08-12T05:13:33;5.63;;;4.60;;
81160;SDS011;70637;48.514;14.500;2023-08-12T05:15:58;7.65;;;4.40;;
81160;SDS011;70637;48.514;14.500;2023-08-12T05:18:24;6.20;;;4.10;;
81160;SDS011;70637;48.514;14.500;2023-08-12T05:20:51;5.80;;;4.45;;
81160;SDS011;70637;48.514;14.500;2023-08-12T05:23:17;5.03;;;4.07;;
81160;SDS011;70637;48.514;14.500;2023-08-12T05:25:45;9.27;;;4.65;;
81160;SDS011;70637;48.514;14.500;2023-08-12T05:28:13;6.68;;;4.43;;
81160;SDS011;70637;48.514;14.500;2023-08-12T05:30:38;9.23;;;4.82;;
81160;SDS011;70637;48.514;14.500;2023-08-12T05:33:04;7.05;;;4.63;;
81160;SDS011;70637;48.514;14.500;2023-08-12T05:35:33;6.07;;;4.60;;
81160;SDS011;70637;48.514;14.500;2023-08-12T05:38:00;5.20;;;4.15;;
81160;SDS011;70637;48.514;14.500;2023-08-12T05:40:26;6.20;;;4.03;;
81160;SDS011;70637;48.514;14.500;2023-08-12T05:42:52;6.35;;;4.15;;
81160;SDS011;70637;48.514;14.500;2023-08-12T05:45:18;6.90;;;4.57;;
81160;SDS011;70637;48.514;14.500;2023-08-12T05:47:43;6.60;;;4.03;;
81160;SDS011;70637;48.514;14.500;2023-08-12T05:50:09;7.25;;;4.07;;
81160;SDS011;70637;48.514;14.500;2023-08-12T05:52:35;6.43;;;4.22;;
81160;SDS011;70637;48.514;14.500;2023-08-12T05:55:00;4.20;;;3.80;;
81160;SDS011;70637;48.514;14.500;2023-08-12T05:57:26;6.00;;;4.20;;
81160;SDS011;70637;48.514;14.500;2023-08-12T05:59:52;6.90;;;3.90;;
81160;SDS011;70637;48.514;14.500;2023-08-12T06:02:18;5.95;;;3.90;;
81160;SDS011;70637;48.514;14.500;2023-08-12T06:04:44;6.13;;;4.25;;
81160;SDS011;70637;48.514;14.500;2023-08-12T06:07:09;5.88;;;3.85;;
81160;SDS011;70637;48.514;14.500;2023-08-12T06:09:35;5.13;;;3.92;;
81160;SDS011;70637;48.514;14.500;2023-08-12T06:12:00;5.68;;;3.65;;
81160;SDS011;70637;48.514;14.500;2023-08-12T06:14:28;5.80;;;4.10;;
81160;SDS011;70637;48.514;14.500;2023-08-12T06:16:54;6.03;;;3.90;;
81160;SDS011;70637;48.514;14.500;2023-08-12T06:19:20;8.77;;;4.03;;
81160;SDS011;70637;48.514;14.500;2023-08-12T06:21:45;6.53;;;3.85;;
81160;SDS011;70637;48.514;14.500;2023-08-12T06:24:11;5.75;;;4.00;;
81160;SDS011;70637;48.514;14.500;2023-08-12T06:26:37;4.45;;;4.05;;
81160;SDS011;70637;48.514;14.500;2023-08-12T06:29:03;5.90;;;3.80;;
81160;SDS011;70637;48.514;14.500;2023-08-12T06:31:29;8.18;;;4.10;;
81160;SDS011;70637;48.514;14.500;2023-08-12T06:33:54;4.88;;;3.65;;
81160;SDS011;70637;48.514;14.500;2023-08-12T06:36:20;5.55;;;3.92;;
81160;SDS011;70637;48.514;14.500;2023-08-12T06:38:45;6.00;;;4.00;;
81160;SDS011;70637;48.514;14.500;2023-08-12T06:41:11;11.43;;;4.72;;
81160;SDS011;70637;48.514;14.500;2023-08-12T06:43:37;11.10;;;4.57;;
81160;SDS011;70637;48.514;14.500;2023-08-12T06:46:02;12.02;;;5.22;;
81160;SDS011;70637;48.514;14.500;2023-08-12T06:48:28;11.32;;;4.80;;
81160;SDS011;70637;48.514;14.500;2023-08-12T06:50:54;9.25;;;4.45;;
81160;SDS011;70637;48.514;14.500;2023-08-12T06:53:20;11.90;;;5.05;;
81160;SDS011;70637;48.514;14.500;2023-08-12T06:55:46;12.68;;;5.18;;
81160;SDS011;70637;48.514;14.500;2023-08-12T06:58:13;7.95;;;4.60;;
81160;SDS011;70637;48.514;14.500;2023-08-12T07:00:40;5.47;;;3.67;;
81160;SDS011;70637;48.514;14.500;2023-08-12T07:03:05;7.57;;;3.58;;
81160;SDS011;70637;48.514;14.500;2023-08-12T07:05:31;6.97;;;4.05;;
81160;SDS011;70637;48.514;14.500;2023-08-12T07:07:56;11.52;;;4.43;;
81160;SDS011;70637;48.514;14.500;2023-08-12T07:10:22;13.13;;;4.47;;
81160;SDS011;70637;48.514;14.500;2023-08-12T07:12:48;6.65;;;3.85;;
81160;SDS011;70637;48.514;14.500;2023-08-12T07:15:13;9.02;;;3.70;;
81160;SDS011;70637;48.514;14.500;2023-08-12T07:17:39;7.60;;;4.18;;
81160;SDS011;70637;48.514;14.500;2023-08-12T07:20:05;14.30;;;5.00;;
81160;SDS011;70637;48.514;14.500;2023-08-12T07:22:32;9.45;;;4.10;;
81160;SDS011;70637;48.514;14.500;2023-08-12T07:24:57;10.75;;;4.30;;
81160;SDS011;70637;48.514;14.500;2023-08-12T07:27:25;10.65;;;3.88;;
81160;SDS011;70637;48.514;14.500;2023-08-12T07:29:51;4.38;;;3.00;;
81160;SDS011;70637;48.514;14.500;2023-08-12T07:32:17;5.80;;;3.00;;
81160;SDS011;70637;48.514;14.500;2023-08-12T07:34:43;11.95;;;3.80;;
81160;SDS011;70637;48.514;14.500;2023-08-12T07:37:09;11.02;;;4.07;;
81160;SDS011;70637;48.514;14.500;2023-08-12T07:39:37;6.10;;;3.20;;
81160;SDS011;70637;48.514;14.500;2023-08-12T07:42:03;12.00;;;3.50;;
81160;SDS011;70637;48.514;14.500;2023-08-12T07:44:29;14.23;;;3.60;;
81160;SDS011;70637;48.514;14.500;2023-08-12T07:46:55;7.55;;;3.20;;
81160;SDS011;70637;48.514;14.500;2023-08-12T07:49:21;6.57;;;3.38;;
81160;SDS011;70637;48.514;14.500;2023-08-12T07:51:47;7.22;;;3.10;;
81160;SDS011;70637;48.514;14.500;2023-08-12T07:54:12;10.77;;;3.50;;
81160;SDS011;70637;48.514;14.500;2023-08-12T07:56:38;6.72;;;3.28;;
81160;SDS011;70637;48.514;14.500;2023-08-12T07:59:04;5.18;;;3.00;;
81160;SDS011;70637;48.514;14.500;2023-08-12T08:01:29;12.50;;;3.88;;
81160;SDS011;70637;48.514;14.500;2023-08-12T08:03:55;8.43;;;3.25;;
81160;SDS011;70637;48.514;14.500;2023-08-12T08:06:22;4.32;;;2.65;;
81160;SDS011;70637;48.514;14.500;2023-08-12T08:08:48;7.90;;;3.80;;
81160;SDS011;70637;48.514;14.500;2023-08-12T08:11:14;8.77;;;3.03;;
81160;SDS011;70637;48.514;14.500;2023-08-12T08:13:40;8.77;;;2.88;;
81160;SDS011;70637;48.514;14.500;2023-08-12T08:16:06;6.38;;;3.20;;
81160;SDS011;70637;48.514;14.500;2023-08-12T08:18:32;5.53;;;2.60;;
81160;SDS011;70637;48.514;14.500;2023-08-12T08:20:57;6.75;;;2.72;;
81160;SDS011;70637;48.514;14.500;2023-08-12T08:23:23;7.00;;;3.08;;
81160;SDS011;70637;48.514;14.500;2023-08-12T08:25:49;4.97;;;2.63;;
81160;SDS011;70637;48.514;14.500;2023-08-12T08:28:15;5.30;;;2.33;;
81160;SDS011;70637;48.514;14.500;2023-08-12T08:30:40;5.07;;;2.53;;
81160;SDS011;70637;48.514;14.500;2023-08-12T08:33:06;4.82;;;2.50;;
81160;SDS011;70637;48.514;14.500;2023-08-12T08:35:33;4.15;;;2.17;;
81160;SDS011;70637;48.514;14.500;2023-08-12T08:37:58;4.38;;;2.20;;
81160;SDS011;70637;48.514;14.500;2023-08-12T08:40:25;7.13;;;2.63;;
81160;SDS011;70637;48.514;14.500;2023-08-12T08:42:52;6.25;;;2.72;;
81160;SDS011;70637;48.514;14.500;2023-08-12T08:45:18;4.35;;;2.40;;
81160;SDS011;70637;48.514;14.500;2023-08-12T08:47:46;6.53;;;2.38;;
81160;SDS011;70637;48.514;14.500;2023-08-12T08:50:14;5.13;;;2.42;;
81160;SDS011;70637;48.514;14.500;2023-08-12T08:52:40;6.18;;;2.30;;
81160;SDS011;70637;48.514;14.500;2023-08-12T08:55:08;4.13;;;2.10;;
81160;SDS011;70637;48.514;14.500;2023-08-12T08:57:34;8.70;;;2.15;;
81160;SDS011;70637;48.514;14.500;2023-08-12T09:00:02;4.82;;;2.17;;
81160;SDS011;70637;48.514;14.500;2023-08-12T09:02:28;8.30;;;2.40;;
81160;SDS011;70637;48.514;14.500;2023-08-12T09:04:54;3.28;;;1.90;;
81160;SDS011;70637;48.514;14.500;2023-08-12T09:07:20;5.30;;;2.22;;
81160;SDS011;70637;48.514;14.500;2023-08-12T09:09:46;3.10;;;2.00;;
81160;SDS011;70637;48.514;14.500;2023-08-12T09:12:17;5.40;;;1.93;;
81160;SDS011;70637;48.514;14.500;2023-08-12T09:14:44;3.95;;;1.90;;
81160;SDS011;70637;48.514;14.500;2023-08-12T09:17:10;4.57;;;2.03;;
81160;SDS011;70637;48.514;14.500;2023-08-12T09:19:36;2.67;;;1.80;;
81160;SDS011;70637;48.514;14.500;2023-08-12T09:22:05;3.63;;;1.77;;
81160;SDS011;70637;48.514;14.500;2023-08-12T09:24:34;4.05;;;1.90;;
81160;SDS011;70637;48.514;14.500;2023-08-12T09:27:02;3.13;;;1.83;;
81160;SDS011;70637;48.514;14.500;2023-08-12T09:29:30;3.33;;;1.80;;
81160;SDS011;70637;48.514;14.500;2023-08-12T09:32:06;4.03;;;1.95;;
81160;SDS011;70637;48.514;14.500;2023-08-12T09:34:35;6.68;;;1.90;;
81160;SDS011;70637;48.514;14.500;2023-08-12T09:37:01;8.48;;;2.30;;
81160;SDS011;70637;48.514;14.500;2023-08-12T09:39:28;3.03;;;2.00;;
81160;SDS011;70637;48.514;14.500;2023-08-12T09:41:54;4.78;;;1.98;;
81160;SDS011;70637;48.514;14.500;2023-08-12T09:44:21;6.15;;;1.73;;
81160;SDS011;70637;48.514;14.500;2023-08-12T09:46:47;3.70;;;1.60;;
81160;SDS011;70637;48.514;14.500;2023-08-12T09:49:13;3.95;;;1.60;;
81160;SDS011;70637;48.514;14.500;2023-08-12T09:51:39;3.40;;;1.80;;
81160;SDS011;70637;48.514;14.500;2023-08-12T09:54:09;2.35;;;1.63;;
81160;SDS011;70637;48.514;14.500;2023-08-12T09:56:36;3.13;;;1.35;;
81160;SDS011;70637;48.514;14.500;2023-08-12T09:59:05;2.92;;;1.70;;
81160;SDS011;70637;48.514;14.500;2023-08-12T10:01:34;3.83;;;1.70;;
81160;SDS011;70637;48.514;14.500;2023-08-12T10:04:02;4.70;;;1.50;;
81160;SDS011;70637;48.514;14.500;2023-08-12T10:06:36;2.92;;;1.70;;
81160;SDS011;70637;48.514;14.500;2023-08-12T10:09:03;2.13;;;1.40;;
81160;SDS011;70637;48.514;14.500;2023-08-12T10:11:30;3.75;;;1.35;;
81160;SDS011;70637;48.514;14.500;2023-08-12T10:13:56;3.75;;;1.40;;
81160;SDS011;70637;48.514;14.500;2023-08-12T10:16:22;2.85;;;1.40;;
81160;SDS011;70637;48.514;14.500;2023-08-12T10:18:48;3.58;;;1.30;;
81160;SDS011;70637;48.514;14.500;2023-08-12T10:21:15;2.13;;;1.30;;
81160;SDS011;70637;48.514;14.500;2023-08-12T10:23:42;2.75;;;1.42;;
81160;SDS011;70637;48.514;14.500;2023-08-12T10:26:09;3.10;;;1.40;;
81160;SDS011;70637;48.514;14.500;2023-08-12T10:28:34;4.53;;;1.50;;
81160;SDS011;70637;48.514;14.500;2023-08-12T10:31:05;2.88;;;1.60;;
81160;SDS011;70637;48.514;14.500;2023-08-12T10:33:34;5.22;;;1.52;;
81160;SDS011;70637;48.514;14.500;2023-08-12T10:36:01;5.95;;;1.60;;
81160;SDS011;70637;48.514;14.500;2023-08-12T10:38:29;4.82;;;1.85;;
81160;SDS011;70637;48.514;14.500;2023-08-12T10:41:13;4.70;;;1.55;;
81160;SDS011;70637;48.514;14.500;2023-08-12T10:44:01;3.50;;;1.50;;
81160;SDS011;70637;48.514;14.500;2023-08-12T10:46:33;2.70;;;1.48;;
81160;SDS011;70637;48.514;14.500;2023-08-12T10:49:04;3.83;;;1.85;;
81160;SDS011;70637;48.514;14.500;2023-08-12T10:54:25;3.38;;;1.40;;
81160;SDS011;70637;48.514;14.500;2023-08-12T11:05:16;3.92;;;1.40;;
81160;SDS011;70637;48.514;14.500;2023-08-12T11:07:47;7.30;;;1.30;;
81160;SDS011;70637;48.514;14.500;2023-08-12T11:10:24;3.67;;;1.40;;
81160;SDS011;70637;48.514;14.500;2023-08-12T11:15:17;3.00;;;1.50;;
81160;SDS011;70637;48.514;14.500;2023-08-12T11:17:45;3.45;;;1.60;;
81160;SDS011;70637;48.514;14.500;2023-08-12T11:20:12;2.90;;;1.30;;
81160;SDS011;70637;48.514;14.500;2023-08-12T11:22:40;4.75;;;1.70;;
81160;SDS011;70637;48.514;14.500;2023-08-12T11:25:07;3.33;;;1.77;;
81160;SDS011;70637;48.514;14.500;2023-08-12T11:27:39;3.08;;;1.60;;
81160;SDS011;70637;48.514;14.500;2023-08-12T11:30:06;3.05;;;1.63;;
81160;SDS011;70637;48.514;14.500;2023-08-12T11:32:32;5.00;;;1.65;;
81160;SDS011;70637;48.514;14.500;2023-08-12T11:34:58;3.63;;;1.63;;
81160;SDS011;70637;48.514;14.500;2023-08-12T11:37:24;5.03;;;1.65;;
81160;SDS011;70637;48.514;14.500;2023-08-12T11:39:51;3.53;;;1.65;;
81160;SDS011;70637;48.514;14.500;2023-08-12T11:42:17;4.60;;;1.80;;
81160;SDS011;70637;48.514;14.500;2023-08-12T11:44:43;3.25;;;1.80;;
81160;SDS011;70637;48.514;14.500;2023-08-12T11:47:09;4.90;;;1.70;;
81160;SDS011;70637;48.514;14.500;2023-08-12T11:49:37;5.22;;;1.65;;
81160;SDS011;70637;48.514;14.500;2023-08-12T11:52:02;2.92;;;1.55;;
81160;SDS011;70637;48.514;14.500;2023-08-12T11:54:28;2.72;;;1.30;;
81160;SDS011;70637;48.514;14.500;2023-08-12T11:56:54;3.53;;;1.48;;
81160;SDS011;70637;48.514;14.500;2023-08-12T11:59:22;4.30;;;1.58;;
81160;SDS011;70637;48.514;14.500;2023-08-12T12:01:50;3.08;;;1.38;;
81160;SDS011;70637;48.514;14.500;2023-08-12T12:04:16;3.05;;;1.50;;
81160;SDS011;70637;48.514;14.500;2023-08-12T12:06:45;2.15;;;1.55;;
81160;SDS011;70637;48.514;14.500;2023-08-12T12:09:12;2.63;;;1.50;;
81160;SDS011;70637;48.514;14.500;2023-08-12T12:11:39;2.75;;;1.60;;
81160;SDS011;70637;48.514;14.500;2023-08-12T12:14:08;3.65;;;1.55;;
81160;SDS011;70637;48.514;14.500;2023-08-12T12:16:38;3.95;;;1.70;;
81160;SDS011;70637;48.514;14.500;2023-08-12T12:19:21;3.13;;;1.63;;
81160;SDS011;70637;48.514;14.500;2023-08-12T12:21:49;2.42;;;1.48;;
81160;SDS011;70637;48.514;14.500;2023-08-12T12:24:16;2.83;;;1.60;;
81160;SDS011;70637;48.514;14.500;2023-08-12T12:26:43;3.78;;;1.83;;
81160;SDS011;70637;48.514;14.500;2023-08-12T12:29:09;3.97;;;1.83;;
81160;SDS011;70637;48.514;14.500;2023-08-12T12:31:39;7.35;;;1.65;;
81160;SDS011;70637;48.514;14.500;2023-08-12T12:34:05;4.57;;;1.73;;
81160;SDS011;70637;48.514;14.500;2023-08-12T12:36:33;2.85;;;1.55;;
81160;SDS011;70637;48.514;14.500;2023-08-12T12:39:00;4.45;;;1.60;;
81160;SDS011;70637;48.514;14.500;2023-08-12T12:41:26;2.15;;;1.38;;
81160;SDS011;70637;48.514;14.500;2023-08-12T12:43:52;5.43;;;1.90;;
81160;SDS011;70637;48.514;14.500;2023-08-12T12:46:18;3.75;;;1.70;;
81160;SDS011;70637;48.514;14.500;2023-08-12T12:48:44;2.65;;;1.67;;
81160;SDS011;70637;48.514;14.500;2023-08-12T12:51:10;8.00;;;1.70;;
81160;SDS011;70637;48.514;14.500;2023-08-12T12:53:36;4.63;;;1.80;;
81160;SDS011;70637;48.514;14.500;2023-08-12T12:56:02;3.08;;;1.75;;
81160;SDS011;70637;48.514;14.500;2023-08-12T12:58:35;6.60;;;1.92;;
81160;SDS011;70637;48.514;14.500;2023-08-12T13:01:02;1.90;;;1.40;;
81160;SDS011;70637;48.514;14.500;2023-08-12T13:03:29;4.63;;;1.50;;
81160;SDS011;70637;48.514;14.500;2023-08-12T13:05:55;3.45;;;1.50;;
81160;SDS011;70637;48.514;14.500;2023-08-12T13:08:21;3.15;;;1.60;;
81160;SDS011;70637;48.514;14.500;2023-08-12T13:10:47;4.30;;;1.63;;
81160;SDS011;70637;48.514;14.500;2023-08-12T13:13:13;3.35;;;1.63;;
81160;SDS011;70637;48.514;14.500;2023-08-12T13:15:40;3.50;;;1.50;;
81160;SDS011;70637;48.514;14.500;2023-08-12T13:18:07;4.55;;;1.40;;
81160;SDS011;70637;48.514;14.500;2023-08-12T13:20:33;3.58;;;1.80;;
81160;SDS011;70637;48.514;14.500;2023-08-12T13:22:59;4.03;;;1.73;;
81160;SDS011;70637;48.514;14.500;2023-08-12T13:25:25;4.00;;;1.60;;
81160;SDS011;70637;48.514;14.500;2023-08-12T13:27:53;4.07;;;1.58;;
81160;SDS011;70637;48.514;14.500;2023-08-12T13:30:18;4.43;;;1.70;;
81160;SDS011;70637;48.514;14.500;2023-08-12T13:32:44;4.43;;;1.60;;
81160;SDS011;70637;48.514;14.500;2023-08-12T13:35:10;3.97;;;1.70;;
81160;SDS011;70637;48.514;14.500;2023-08-12T13:37:36;2.55;;;1.50;;
81160;SDS011;70637;48.514;14.500;2023-08-12T13:40:01;4.07;;;1.70;;
81160;SDS011;70637;48.514;14.500;2023-08-12T13:42:28;2.97;;;1.40;;
81160;SDS011;70637;48.514;14.500;2023-08-12T13:44:53;5.85;;;1.75;;
81160;SDS011;70637;48.514;14.500;2023-08-12T13:47:19;7.00;;;1.60;;
81160;SDS011;70637;48.514;14.500;2023-08-12T13:49:44;5.10;;;1.50;;
81160;SDS011;70637;48.514;14.500;2023-08-12T13:52:10;2.97;;;1.33;;
81160;SDS011;70637;48.514;14.500;2023-08-12T13:54:36;4.63;;;1.52;;
81160;SDS011;70637;48.514;14.500;2023-08-12T13:57:02;3.95;;;1.63;;
81160;SDS011;70637;48.514;14.500;2023-08-12T13:59:29;2.92;;;1.48;;
81160;SDS011;70637;48.514;14.500;2023-08-12T14:01:54;5.65;;;1.70;;
81160;SDS011;70637;48.514;14.500;2023-08-12T14:04:20;4.40;;;1.63;;
81160;SDS011;70637;48.514;14.500;2023-08-12T14:06:46;4.28;;;1.52;;
81160;SDS011;70637;48.514;14.500;2023-08-12T14:09:11;2.42;;;1.23;;
81160;SDS011;70637;48.514;14.500;2023-08-12T14:11:39;4.10;;;1.70;;
81160;SDS011;70637;48.514;14.500;2023-08-12T14:14:05;5.32;;;1.52;;
81160;SDS011;70637;48.514;14.500;2023-08-12T14:16:30;3.60;;;1.30;;
81160;SDS011;70637;48.514;14.500;2023-08-12T14:18:56;3.63;;;1.35;;
81160;SDS011;70637;48.514;14.500;2023-08-12T14:21:22;2.38;;;1.33;;
81160;SDS011;70637;48.514;14.500;2023-08-12T14:23:47;3.72;;;1.50;;
81160;SDS011;70637;48.514;14.500;2023-08-12T14:26:13;4.60;;;1.40;;
81160;SDS011;70637;48.514;14.500;2023-08-12T14:28:39;7.18;;;1.42;;
81160;SDS011;70637;48.514;14.500;2023-08-12T14:31:04;3.72;;;1.58;;
81160;SDS011;70637;48.514;14.500;2023-08-12T14:33:30;4.72;;;1.33;;
81160;SDS011;70637;48.514;14.500;2023-08-12T14:35:59;2.10;;;1.40;;
81160;SDS011;70637;48.514;14.500;2023-08-12T14:38:25;3.45;;;1.30;;
81160;SDS011;70637;48.514;14.500;2023-08-12T14:40:50;5.30;;;1.38;;
81160;SDS011;70637;48.514;14.500;2023-08-12T14:43:16;2.30;;;1.35;;